createdAt,value
2022-11-28T00:02:59.326Z,9.3
2022-11-28T00:05:59.230Z,9.6
2022-11-28T00:08:59.222Z,9.6
2022-11-28T00:11:59.231Z,9.3
2022-11-28T00:14:59.348Z,9.1
2022-11-28T00:17:59.245Z,9.2
2022-11-28T00:20:59.250Z,9.3
2022-11-28T00:23:59.239Z,9.2
2022-11-28T00:26:59.241Z,9.2
2022-11-28T00:29:59.245Z,9
2022-11-28T00:32:59.378Z,9
2022-11-28T00:35:59.269Z,9.2
2022-11-28T00:38:59.257Z,9.1
2022-11-28T00:41:59.264Z,9
2022-11-28T00:44:59.268Z,9.1
2022-11-28T00:47:59.288Z,8.8
2022-11-28T00:50:59.418Z,8.7
2022-11-28T00:53:59.358Z,8.9
2022-11-28T00:56:59.287Z,8.8
2022-11-28T00:59:59.295Z,8.8
2022-11-28T01:02:59.303Z,8.8
2022-11-28T01:05:59.312Z,9.2
2022-11-28T01:08:59.419Z,8.8
2022-11-28T01:11:59.311Z,8.3
2022-11-28T01:14:59.312Z,8.4
2022-11-28T01:17:59.326Z,8.4
2022-11-28T01:20:59.331Z,8.9
2022-11-28T01:23:59.328Z,8.9
2022-11-28T01:26:59.444Z,8.6
2022-11-28T01:29:59.330Z,8.6
2022-11-28T01:32:59.354Z,8.2
2022-11-28T01:35:59.352Z,8.9
2022-11-28T01:38:59.349Z,8.6
2022-11-28T01:41:59.357Z,8.4
2022-11-28T01:44:59.475Z,8.3
2022-11-28T01:47:59.372Z,8.4
2022-11-28T01:50:59.384Z,8.7
2022-11-28T01:53:59.373Z,9.2
2022-11-28T01:56:59.376Z,8.8
2022-11-28T01:59:59.381Z,8.3
2022-11-28T02:02:59.528Z,8.8
2022-11-28T02:05:59.397Z,9
2022-11-28T02:08:59.389Z,8.8
2022-11-28T02:11:59.393Z,8.9
2022-11-28T02:14:59.394Z,9
2022-11-28T02:17:59.407Z,9.4
2022-11-28T02:20:59.530Z,9
2022-11-28T02:23:59.403Z,9
2022-11-28T02:26:59.399Z,8.9
2022-11-28T02:29:59.409Z,9.1
2022-11-28T02:32:59.418Z,9.1
2022-11-28T02:35:59.425Z,9.4
2022-11-28T02:38:59.537Z,9.2
2022-11-28T02:41:59.415Z,9.4
2022-11-28T02:44:59.428Z,9.4
2022-11-28T02:47:59.442Z,9.5
2022-11-28T02:50:59.450Z,9.3
2022-11-28T02:53:59.445Z,9.8
2022-11-28T02:56:59.572Z,9.4
2022-11-28T02:59:59.455Z,9.4
2022-11-28T03:02:59.472Z,9.7
2022-11-28T03:05:59.474Z,9.5
2022-11-28T03:08:59.478Z,9.4
2022-11-28T03:11:59.480Z,9.5
2022-11-28T03:14:59.618Z,9.1
2022-11-28T03:17:59.505Z,9.5
2022-11-28T03:20:59.517Z,8.9
2022-11-28T03:23:59.510Z,9.1
2022-11-28T03:26:59.515Z,9.2
2022-11-28T03:29:59.517Z,9
2022-11-28T03:32:59.656Z,9.1
2022-11-28T03:35:59.543Z,8.7
2022-11-28T03:38:59.546Z,8.8
2022-11-28T03:41:59.551Z,9.1
2022-11-28T03:44:59.550Z,9.2
2022-11-28T03:47:59.566Z,8.7
2022-11-28T03:50:59.693Z,9.4
2022-11-28T03:53:59.568Z,9.1
2022-11-28T03:56:59.571Z,9.2
2022-11-28T03:59:59.581Z,9.5
2022-11-28T04:02:59.608Z,9.7
2022-11-28T04:05:59.598Z,9.8
2022-11-28T04:08:59.728Z,10.5
2022-11-28T04:11:59.608Z,10.6
2022-11-28T04:14:59.610Z,10.3
2022-11-28T04:17:59.627Z,11.1
2022-11-28T04:20:59.626Z,10.6
2022-11-28T04:23:59.622Z,11
2022-11-28T04:26:59.737Z,10.9
2022-11-28T04:29:59.627Z,10.8
2022-11-28T04:32:59.646Z,10.8
2022-11-28T04:35:59.661Z,10.8
2022-11-28T04:38:59.631Z,10.3
2022-11-28T04:41:59.638Z,10.6
2022-11-28T04:44:59.757Z,10.5
2022-11-28T04:47:59.658Z,10.6
2022-11-28T04:50:59.664Z,10.5
2022-11-28T04:53:59.651Z,10.1
2022-11-28T04:56:59.661Z,9.9
2022-11-28T04:59:59.669Z,10.2
2022-11-28T05:02:59.792Z,10.6
2022-11-28T05:05:59.686Z,10
2022-11-28T05:08:59.673Z,10.3
2022-11-28T05:11:59.677Z,10.4
2022-11-28T05:14:59.680Z,10.5
2022-11-28T05:17:59.700Z,10.2
2022-11-28T05:20:59.828Z,9.9
2022-11-28T05:23:59.706Z,9.7
2022-11-28T05:26:59.702Z,9.3
2022-11-28T05:29:59.711Z,9.6
2022-11-28T05:32:59.724Z,10.4
2022-11-28T05:35:59.731Z,9.7
2022-11-28T05:38:59.854Z,10.3
2022-11-28T05:41:59.733Z,10.3
2022-11-28T05:44:59.747Z,10.4
2022-11-28T05:47:59.756Z,10
2022-11-28T05:50:59.774Z,10.5
2022-11-28T05:53:59.756Z,10
2022-11-28T05:56:59.885Z,10.1
2022-11-28T05:59:59.769Z,10
2022-11-28T06:03:01.438Z,10.1
2022-11-28T06:05:59.783Z,10.2
2022-11-28T06:08:59.780Z,10.2
2022-11-28T06:11:59.784Z,10
2022-11-28T06:14:59.907Z,10.3
2022-11-28T06:17:59.814Z,10.2
2022-11-28T06:20:59.820Z,10.6
2022-11-28T06:23:59.815Z,10.4
2022-11-28T06:26:59.815Z,10.3
2022-11-28T06:29:59.811Z,10.5
2022-11-28T06:32:59.940Z,10.8
2022-11-28T06:35:59.829Z,10.8
2022-11-28T06:38:59.838Z,10.9
2022-11-28T06:41:59.821Z,10.1
2022-11-28T06:44:59.825Z,10.7
2022-11-28T06:47:59.845Z,10.9
2022-11-28T06:50:59.967Z,10.6
2022-11-28T06:53:59.835Z,10.5
2022-11-28T06:56:59.837Z,10.6
2022-11-28T06:59:59.836Z,10.2
2022-11-28T07:02:59.858Z,9.9
2022-11-28T07:05:59.870Z,9.8
2022-11-28T07:08:59.978Z,10.1
2022-11-28T07:11:59.862Z,10.3
2022-11-28T07:14:59.862Z,9.9
2022-11-28T07:17:59.877Z,10.5
2022-11-28T07:20:59.882Z,10.1
2022-11-28T07:23:59.885Z,10.2
2022-11-28T07:26:59.997Z,10
2022-11-28T07:29:59.884Z,9.9
2022-11-28T07:32:59.903Z,9.9
2022-11-28T07:35:59.900Z,9.7
2022-11-28T07:38:59.903Z,10
2022-11-28T07:41:59.892Z,10
2022-11-28T07:44:59.951Z,9.9
2022-11-28T07:47:59.923Z,9.7
2022-11-28T07:50:59.927Z,10.2
2022-11-28T07:53:59.918Z,9.9
2022-11-28T07:57:15.390Z,10.2
2022-11-28T07:59:59.927Z,10.1
2022-11-28T08:02:59.962Z,10.3
2022-11-28T08:06:01.680Z,10.1
2022-11-28T08:08:59.942Z,9.8
2022-11-28T08:11:59.942Z,10.7
2022-11-28T08:14:59.947Z,10.5
2022-11-28T08:17:59.964Z,10.7
2022-11-28T08:20:59.993Z,10
2022-11-28T08:23:59.966Z,10
2022-11-28T08:26:59.967Z,10
2022-11-28T08:29:59.977Z,9.8
2022-11-28T08:32:59.986Z,9.8
2022-11-28T08:35:59.997Z,10
2022-11-28T08:39:16.959Z,10.4
2022-11-28T08:41:59.996Z,9.3
2022-11-28T08:44:59.996Z,9.8
2022-11-28T08:48:00.023Z,9.5
2022-11-28T08:51:00.033Z,10.1
2022-11-28T08:54:00.288Z,9.4
2022-11-28T08:57:00.046Z,9.6
2022-11-28T09:00:00.035Z,9.9
2022-11-28T09:03:00.039Z,9.6
2022-11-28T09:06:00.049Z,9.7
2022-11-28T09:09:00.045Z,9.7
2022-11-28T09:12:00.076Z,9.5
2022-11-28T09:15:00.077Z,9.7
2022-11-28T09:18:00.078Z,9.8
2022-11-28T09:21:00.088Z,10.2
2022-11-28T09:24:00.068Z,10.3
2022-11-28T09:27:00.081Z,10.7
2022-11-28T09:30:00.085Z,10.5
2022-11-28T09:33:00.134Z,10.4
2022-11-28T09:36:00.114Z,10.1
2022-11-28T09:39:00.090Z,11
2022-11-28T09:42:00.092Z,10.9
2022-11-28T09:45:00.109Z,10.7
2022-11-28T09:48:00.124Z,10.8
2022-11-28T09:51:00.162Z,10.5
2022-11-28T09:54:00.109Z,10.7
2022-11-28T09:57:00.256Z,10.7
2022-11-28T10:00:00.116Z,10.3
2022-11-28T10:03:00.125Z,10.4
2022-11-28T10:06:00.128Z,10.3
2022-11-28T10:09:00.142Z,10.1
2022-11-28T10:12:00.126Z,10
2022-11-28T10:15:00.132Z,9.7
2022-11-28T10:18:00.149Z,10.2
2022-11-28T10:21:00.159Z,9.8
2022-11-28T10:24:00.162Z,10
2022-11-28T10:27:00.184Z,10.2
2022-11-28T10:30:00.163Z,9.6
2022-11-28T10:33:00.173Z,9.7
2022-11-28T10:36:00.189Z,9.5
2022-11-28T10:39:00.170Z,9.9
2022-11-28T10:42:00.175Z,10.2
2022-11-28T10:45:00.204Z,9.9
2022-11-28T10:48:04.083Z,9.7
2022-11-28T10:51:00.207Z,9.7
2022-11-28T10:54:00.203Z,9.9
2022-11-28T10:57:00.203Z,9.4
2022-11-28T11:00:00.260Z,9.6
2022-11-28T11:03:00.242Z,9.7
2022-11-28T11:06:00.272Z,9.3
2022-11-28T11:09:00.261Z,9.2
2022-11-28T11:12:00.366Z,9.4
2022-11-28T11:15:00.221Z,9.6
2022-11-28T11:18:00.241Z,9.4
2022-11-28T11:21:00.321Z,9.1
2022-11-28T11:24:00.260Z,9.4
2022-11-28T11:27:00.271Z,9.2
2022-11-28T11:30:00.287Z,9.4
2022-11-28T11:33:00.315Z,9
2022-11-28T11:36:00.324Z,8.9
2022-11-28T11:39:00.352Z,9.3
2022-11-28T11:42:00.336Z,9
2022-11-28T11:45:00.351Z,8.9
2022-11-28T11:48:00.373Z,8.8
2022-11-28T11:51:00.725Z,9.6
2022-11-28T11:54:00.395Z,9.5
2022-11-28T11:57:25.329Z,10.5
2022-11-28T12:00:00.422Z,10
2022-11-28T12:03:00.610Z,9.4
2022-11-28T12:06:15.207Z,9.9
2022-11-28T12:09:00.456Z,10.4
2022-11-28T12:12:00.469Z,9
2022-11-28T12:15:00.541Z,10.6
2022-11-28T12:18:00.511Z,9.3
2022-11-28T12:21:00.527Z,10.7
2022-11-28T12:24:00.532Z,9.6
2022-11-28T12:27:00.543Z,9.7
2022-11-28T12:30:00.552Z,10.6
2022-11-28T12:33:00.600Z,11.3
2022-11-28T12:36:03.084Z,10
2022-11-28T12:39:00.582Z,9.7
2022-11-28T12:42:00.595Z,9.4
2022-11-28T12:45:00.600Z,9.8
2022-11-28T12:48:00.621Z,12.5
2022-11-28T12:51:00.661Z,10.8
2022-11-28T12:54:00.625Z,10.1
2022-11-28T12:57:00.682Z,10.7
2022-11-28T13:00:05.182Z,11.2
2022-11-28T13:03:00.710Z,10.2
2022-11-28T13:06:00.660Z,10
2022-11-28T13:09:00.703Z,11.2
2022-11-28T13:12:00.660Z,9.6
2022-11-28T13:15:00.663Z,10.6
2022-11-28T13:18:00.679Z,9.8
2022-11-28T13:21:00.687Z,10.8
2022-11-28T13:24:05.465Z,10.9
2022-11-28T13:27:00.719Z,11.2
2022-11-28T13:30:00.703Z,10.7
2022-11-28T13:33:00.729Z,10.7
2022-11-28T13:36:00.720Z,11.1
2022-11-28T13:39:12.200Z,10.4
2022-11-28T13:42:21.695Z,10.2
2022-11-28T13:45:00.760Z,10.9
2022-11-28T13:48:00.982Z,10.1
2022-11-28T13:51:00.752Z,10.4
2022-11-28T13:54:00.758Z,10.3
2022-11-28T13:57:00.754Z,10.2
2022-11-28T14:00:00.761Z,10.2
2022-11-28T14:03:00.869Z,10.3
2022-11-28T14:06:00.779Z,10.5
2022-11-28T14:09:00.776Z,10.3
2022-11-28T14:12:00.779Z,10.3
2022-11-28T14:15:00.784Z,10.1
2022-11-28T14:18:00.808Z,10.4
2022-11-28T14:21:00.838Z,10.2
2022-11-28T14:24:00.806Z,9.9
2022-11-28T14:27:00.815Z,10.4
2022-11-28T14:30:00.824Z,9.9
2022-11-28T14:33:00.838Z,10.4
2022-11-28T14:36:00.843Z,10.5
2022-11-28T14:39:00.881Z,10.2
2022-11-28T14:42:00.861Z,10.6
2022-11-28T14:45:06.675Z,10.4
2022-11-28T14:48:00.886Z,10.4
2022-11-28T14:51:02.332Z,10.6
2022-11-28T14:54:00.890Z,10.1
2022-11-28T14:57:00.922Z,10.7
2022-11-28T15:00:00.911Z,10.7
2022-11-28T15:03:00.997Z,10.9
2022-11-28T15:06:00.922Z,11.1
2022-11-28T15:09:00.917Z,10.8
2022-11-28T15:12:00.917Z,10.9
2022-11-28T15:15:00.953Z,10.8
2022-11-28T15:18:00.959Z,10.9
2022-11-28T15:21:00.951Z,10.7
2022-11-28T15:24:00.941Z,10.8
2022-11-28T15:27:00.952Z,10.3
2022-11-28T15:30:00.959Z,10.2
2022-11-28T15:33:01.007Z,10.8
2022-11-28T15:36:00.978Z,10.5
2022-11-28T15:39:00.977Z,11.1
2022-11-28T15:42:00.980Z,11
2022-11-28T15:45:00.984Z,10.7
2022-11-28T15:48:01.002Z,11.4
2022-11-28T15:51:01.025Z,11.7
2022-11-28T15:54:00.996Z,11
2022-11-28T15:57:00.998Z,11.2
2022-11-28T16:00:01.065Z,11.6
2022-11-28T16:03:01.021Z,11.6
2022-11-28T16:06:01.028Z,11.5
2022-11-28T16:09:01.053Z,12.2
2022-11-28T16:12:01.030Z,13.5
2022-11-28T16:15:01.038Z,12.6
2022-11-28T16:18:01.051Z,12
2022-11-28T16:21:01.161Z,12.2
2022-11-28T16:24:01.047Z,12.3
2022-11-28T16:27:01.084Z,12.8
2022-11-28T16:30:01.066Z,12.8
2022-11-28T16:33:01.083Z,13.4
2022-11-28T16:36:01.084Z,13.9
2022-11-28T16:39:01.080Z,13.2
2022-11-28T16:42:01.087Z,13.3
2022-11-28T16:45:01.173Z,13
2022-11-28T16:48:01.104Z,14.2
2022-11-28T16:51:01.106Z,13.5
2022-11-28T16:54:01.100Z,13.1
2022-11-28T16:57:01.105Z,13.2
2022-11-28T17:00:01.126Z,13.7
2022-11-28T17:03:01.151Z,13.7
2022-11-28T17:06:01.154Z,13.8
2022-11-28T17:09:01.116Z,13.7
2022-11-28T17:12:01.129Z,13.9
2022-11-28T17:15:01.128Z,13.9
2022-11-28T17:18:01.140Z,13.8
2022-11-28T17:21:01.168Z,14.1
2022-11-28T17:24:01.133Z,13.8
2022-11-28T17:27:01.132Z,15
2022-11-28T17:30:01.139Z,14.6
2022-11-28T17:33:01.147Z,14.6
2022-11-28T17:36:01.151Z,14
2022-11-28T17:39:05.126Z,14.2
2022-11-28T17:42:01.140Z,14.9
2022-11-28T17:45:01.147Z,15.1
2022-11-28T17:48:01.159Z,15
2022-11-28T17:51:01.168Z,15.3
2022-11-28T17:54:01.160Z,15.9
2022-11-28T17:57:01.203Z,15.6
2022-11-28T18:00:01.196Z,16
2022-11-28T18:03:01.197Z,15.4
2022-11-28T18:06:01.204Z,15.3
2022-11-28T18:09:01.202Z,15.5
2022-11-28T18:12:01.262Z,16
2022-11-28T18:15:01.247Z,15.1
2022-11-28T18:18:01.238Z,15.6
2022-11-28T18:21:01.254Z,15.4
2022-11-28T18:24:01.243Z,15.5
2022-11-28T18:27:01.256Z,15.8
2022-11-28T18:30:01.258Z,16.3
2022-11-28T18:33:01.313Z,16.1
2022-11-28T18:36:01.295Z,16
2022-11-28T18:39:01.291Z,15.8
2022-11-28T18:42:01.296Z,16.5
2022-11-28T18:45:01.302Z,16.4
2022-11-28T18:48:01.319Z,16.8
2022-11-28T18:51:01.359Z,17
2022-11-28T18:54:01.334Z,17.5
2022-11-28T18:57:01.341Z,17.2
2022-11-28T19:00:01.501Z,16.6
2022-11-28T19:03:01.368Z,17.4
2022-11-28T19:06:01.382Z,18.3
2022-11-28T19:09:01.404Z,18.5
2022-11-28T19:12:01.389Z,18.6
2022-11-28T19:15:02.531Z,19.6
2022-11-28T19:18:01.416Z,19.4
2022-11-28T19:21:01.427Z,18.5
2022-11-28T19:24:01.425Z,18.4
2022-11-28T19:27:01.461Z,17.8
2022-11-28T19:30:01.441Z,18.1
2022-11-28T19:33:01.461Z,17.6
2022-11-28T19:36:01.498Z,18.2
2022-11-28T19:39:01.473Z,19.1
2022-11-28T19:42:01.485Z,19.2
2022-11-28T19:45:01.518Z,19.5
2022-11-28T19:48:01.508Z,19.4
2022-11-28T19:51:01.518Z,18.8
2022-11-28T19:54:03.731Z,18.6
2022-11-28T19:57:01.526Z,18.4
2022-11-28T20:00:01.536Z,18.3
2022-11-28T20:03:01.576Z,18.2
2022-11-28T20:06:01.565Z,18.5
2022-11-28T20:09:01.563Z,18.1
2022-11-28T20:12:01.574Z,18.8
2022-11-28T20:15:01.585Z,18.4
2022-11-28T20:18:01.605Z,18.9
2022-11-28T20:21:01.655Z,18.2
2022-11-28T20:24:01.617Z,18.9
2022-11-28T20:27:01.632Z,18.2
2022-11-28T20:30:01.639Z,18.9
2022-11-28T20:33:01.661Z,18.2
2022-11-28T20:36:01.678Z,18.2
2022-11-28T20:39:01.697Z,18.4
2022-11-28T20:42:01.684Z,18.3
2022-11-28T20:45:01.705Z,18
2022-11-28T20:48:01.716Z,18.6
2022-11-28T20:51:01.723Z,17.8
2022-11-28T20:54:01.727Z,17.7
2022-11-28T20:57:26.130Z,18.1
2022-11-28T21:00:01.762Z,18.8
2022-11-28T21:03:01.781Z,18.1
2022-11-28T21:06:01.908Z,18.1
2022-11-28T21:09:01.788Z,17.6
2022-11-28T21:12:01.823Z,17.8
2022-11-28T21:15:01.841Z,17
2022-11-28T21:18:01.838Z,16.9
2022-11-28T21:21:01.852Z,16.9
2022-11-28T21:24:01.852Z,16.8
2022-11-28T21:27:01.866Z,16.8
2022-11-28T21:30:01.881Z,17.3
2022-11-28T21:33:01.925Z,16.8
2022-11-28T21:36:01.904Z,17
2022-11-28T21:39:01.987Z,16.5
2022-11-28T21:42:01.922Z,16.3
2022-11-28T21:45:01.939Z,16.1
2022-11-28T21:48:01.963Z,16
2022-11-28T21:51:02.005Z,16.2
2022-11-28T21:54:01.975Z,16.2
2022-11-28T21:57:01.992Z,16.3
2022-11-28T22:00:02.003Z,16.1
2022-11-28T22:03:16.440Z,16
2022-11-28T22:06:02.027Z,16.2
2022-11-28T22:09:07.247Z,15.9
2022-11-28T22:12:02.035Z,15.8
2022-11-28T22:15:02.029Z,16.2
2022-11-28T22:18:02.037Z,16.2
2022-11-28T22:21:02.069Z,16.3
2022-11-28T22:24:02.052Z,16.6
2022-11-28T22:27:02.079Z,16.2
2022-11-28T22:30:02.056Z,15.7
2022-11-28T22:33:02.051Z,16.1
2022-11-28T22:36:02.060Z,15.8
2022-11-28T22:39:02.058Z,15.8
2022-11-28T22:42:02.071Z,16.2
2022-11-28T22:45:02.097Z,16.3
2022-11-28T22:48:02.080Z,16.8
2022-11-28T22:51:02.088Z,15.8
2022-11-28T22:54:02.084Z,16.4
2022-11-28T22:57:02.096Z,16.4
2022-11-28T23:00:02.079Z,16.4
2022-11-28T23:03:02.247Z,16
2022-11-28T23:06:02.127Z,15.8
2022-11-28T23:09:02.095Z,15.9
2022-11-28T23:12:02.084Z,16
2022-11-28T23:15:02.105Z,16.1
2022-11-28T23:18:02.088Z,16.5
2022-11-28T23:21:02.125Z,16.2
2022-11-28T23:24:02.084Z,16.1
2022-11-28T23:27:02.092Z,16.6
2022-11-28T23:30:02.091Z,16.3
2022-11-28T23:33:02.099Z,16.5
2022-11-28T23:36:02.102Z,16.7
2022-11-28T23:39:02.117Z,17.1
2022-11-28T23:42:02.100Z,16.2
2022-11-28T23:45:02.100Z,16.8
2022-11-28T23:48:02.096Z,16.6
2022-11-28T23:51:02.113Z,17
2022-11-28T23:54:02.108Z,17.2
2022-11-28T23:57:02.125Z,17.2
